Maribor, Slovenia

7:32 PM CEST on April 01, 2015 (GMT +0200)
Radizel | | Change Station
CLOSE
Current Station
Personal Weather Station
Location: Slivnica pri Mariboru, Maribor
Elevation: 984 ft
Nearby Weather Stations

Elev 984 ft 46.47 °N, 15.66 °E | Updated 8 seconds ago

Scattered Clouds
Scattered Clouds
46.6 °F
Feels Like 47 °F
N
2.4
Wind Variable Wind from ENE
Gusts 7.4 mph

Today
High -- | Low -- °F
--% Chance of Precip.
Yesterday
High -- | Low -- °F
Precip. -- in
6:37 AM 7:25 PM
Waxing Gibbous, 93% visible
Pressure 30.01 in
Visibility 6.2 miles
Clouds Few 5000 ft
Scattered Clouds 12000 ft
Windchill 47 °F
Dew Point 12 °F
Humidity 24%
Rainfall 0.00 in
Snow Depth Not available.
UV 0 out of 12
Pollen Not available.
Air Quality Not available.
Flu Activity Not available.
METAR LOWG 011720Z 32011KT 9999 FEW050 SCT120 06/M06 Q1016 NOSIG

More Conditions Fewer Conditions

Pressure 30.01 in
Visibility 6.2 miles
Clouds Few 5000 ft
Scattered Clouds 12000 ft
Windchill 47 °F
Dew Point 12 °F
Humidity 24%
Rainfall 0.00 in
Snow Depth Not available.
UV 0 out of 12
Pollen Not available.
Air Quality Not available.
Flu Activity Not available.
METAR LOWG 011720Z 32011KT 9999 FEW050 SCT120 06/M06 Q1016 NOSIG

More Conditions Fewer Conditions

10-Day Weather Forecast

Almanac

Astronomy

Apr. 01, 2015 Rise Set
Actual Time
Civil Twilight
Nautical Twilight
Astronomical Twilight
Moon
Length of Visible Light
Length of Day
Tomorrow will be .
, % of the Moon is Illuminated

Today's Extremes

Country Highs Country Lows

Community

WunderPhotos

Upload Photos

1,810,015 photos uploaded!

WunderBlogs® & News

Nearby

Air Quality

  Air Quality AQ Index Pollutant
Not available.

Snow Depth

Station Depth Elevation

Earthquake Activity

City Distance Mag. Time & Date
Minimum magnitude displayed is 2.5.

Coastal Water Temperatures

Place Temperature

Stations

Nearby Weather Stations

Station Location Temp. Windchill Dew Point Humidity Wind Precip. Elev Updated Type